sensor_id;sensor_type;location;lat;lon;timestamp;P1;durP1;ratioP1;P2;durP2;ratioP2
63818;SDS011;49970;54.976;73.248;2023-01-04T00:00:03;120.38;;;46.38;;
63818;SDS011;49970;54.976;73.248;2023-01-04T00:02:30;132.30;;;51.03;;
63818;SDS011;49970;54.976;73.248;2023-01-04T00:04:56;123.68;;;46.25;;
63818;SDS011;49970;54.976;73.248;2023-01-04T00:07:33;115.28;;;44.25;;
63818;SDS011;49970;54.976;73.248;2023-01-04T00:09:59;104.88;;;42.88;;
63818;SDS011;49970;54.976;73.248;2023-01-04T00:12:35;111.50;;;39.33;;
63818;SDS011;49970;54.976;73.248;2023-01-04T00:15:02;106.68;;;38.85;;
63818;SDS011;49970;54.976;73.248;2023-01-04T00:17:29;107.13;;;38.17;;
63818;SDS011;49970;54.976;73.248;2023-01-04T00:19:55;98.38;;;37.33;;
63818;SDS011;49970;54.976;73.248;2023-01-04T00:22:21;101.78;;;36.75;;
63818;SDS011;49970;54.976;73.248;2023-01-04T00:24:48;93.68;;;36.00;;
63818;SDS011;49970;54.976;73.248;2023-01-04T00:27:14;89.07;;;35.47;;
63818;SDS011;49970;54.976;73.248;2023-01-04T00:29:40;89.90;;;31.92;;
63818;SDS011;49970;54.976;73.248;2023-01-04T00:32:06;86.85;;;32.22;;
63818;SDS011;49970;54.976;73.248;2023-01-04T00:34:42;89.90;;;31.65;;
63818;SDS011;49970;54.976;73.248;2023-01-04T00:37:08;85.55;;;31.73;;
63818;SDS011;49970;54.976;73.248;2023-01-04T00:39:35;75.97;;;30.67;;
63818;SDS011;49970;54.976;73.248;2023-01-04T00:42:01;90.05;;;32.95;;
63818;SDS011;49970;54.976;73.248;2023-01-04T00:44:31;83.30;;;32.13;;
63818;SDS011;49970;54.976;73.248;2023-01-04T00:46:58;79.38;;;29.85;;
63818;SDS011;49970;54.976;73.248;2023-01-04T00:49:26;75.47;;;31.45;;
63818;SDS011;49970;54.976;73.248;2023-01-04T00:51:54;75.75;;;30.33;;
63818;SDS011;49970;54.976;73.248;2023-01-04T00:54:20;71.90;;;28.30;;
63818;SDS011;49970;54.976;73.248;2023-01-04T00:56:46;73.65;;;28.35;;
63818;SDS011;49970;54.976;73.248;2023-01-04T00:59:14;73.97;;;31.30;;
63818;SDS011;49970;54.976;73.248;2023-01-04T01:01:43;79.93;;;32.22;;
63818;SDS011;49970;54.976;73.248;2023-01-04T01:04:14;91.38;;;31.45;;
63818;SDS011;49970;54.976;73.248;2023-01-04T01:06:41;74.18;;;30.73;;
63818;SDS011;49970;54.976;73.248;2023-01-04T01:09:08;82.15;;;31.70;;
63818;SDS011;49970;54.976;73.248;2023-01-04T01:11:39;69.75;;;28.20;;
63818;SDS011;49970;54.976;73.248;2023-01-04T01:14:16;81.75;;;29.58;;
63818;SDS011;49970;54.976;73.248;2023-01-04T01:16:44;67.20;;;27.58;;
63818;SDS011;49970;54.976;73.248;2023-01-04T01:19:10;68.38;;;27.67;;
63818;SDS011;49970;54.976;73.248;2023-01-04T01:21:37;74.20;;;26.65;;
63818;SDS011;49970;54.976;73.248;2023-01-04T01:24:04;62.60;;;26.08;;
63818;SDS011;49970;54.976;73.248;2023-01-04T01:26:30;67.18;;;26.17;;
63818;SDS011;49970;54.976;73.248;2023-01-04T01:29:05;55.90;;;26.42;;
63818;SDS011;49970;54.976;73.248;2023-01-04T01:31:31;55.67;;;24.85;;
63818;SDS011;49970;54.976;73.248;2023-01-04T01:33:58;61.88;;;26.00;;
63818;SDS011;49970;54.976;73.248;2023-01-04T01:36:27;60.17;;;26.88;;
63818;SDS011;49970;54.976;73.248;2023-01-04T01:39:01;55.33;;;25.55;;
63818;SDS011;49970;54.976;73.248;2023-01-04T01:41:28;57.88;;;25.77;;
63818;SDS011;49970;54.976;73.248;2023-01-04T01:44:00;56.20;;;25.60;;
63818;SDS011;49970;54.976;73.248;2023-01-04T01:49:00;57.17;;;27.00;;
63818;SDS011;49970;54.976;73.248;2023-01-04T01:51:29;64.60;;;25.95;;
63818;SDS011;49970;54.976;73.248;2023-01-04T01:54:00;58.65;;;26.75;;
63818;SDS011;49970;54.976;73.248;2023-01-04T01:56:38;63.97;;;27.73;;
63818;SDS011;49970;54.976;73.248;2023-01-04T01:59:05;60.95;;;28.25;;
63818;SDS011;49970;54.976;73.248;2023-01-04T02:01:34;63.08;;;27.10;;
63818;SDS011;49970;54.976;73.248;2023-01-04T02:04:11;72.85;;;29.42;;
63818;SDS011;49970;54.976;73.248;2023-01-04T02:06:45;74.93;;;33.72;;
63818;SDS011;49970;54.976;73.248;2023-01-04T02:09:14;77.10;;;31.23;;
63818;SDS011;49970;54.976;73.248;2023-01-04T02:11:42;74.45;;;32.63;;
63818;SDS011;49970;54.976;73.248;2023-01-04T02:14:08;88.72;;;36.00;;
63818;SDS011;49970;54.976;73.248;2023-01-04T02:19:55;91.10;;;36.75;;
63818;SDS011;49970;54.976;73.248;2023-01-04T02:25:27;91.95;;;35.17;;
63818;SDS011;49970;54.976;73.248;2023-01-04T02:31:39;98.97;;;35.67;;
63818;SDS011;49970;54.976;73.248;2023-01-04T02:34:18;93.97;;;37.75;;
63818;SDS011;49970;54.976;73.248;2023-01-04T02:36:57;100.00;;;35.00;;
63818;SDS011;49970;54.976;73.248;2023-01-04T02:39:53;111.68;;;37.85;;
63818;SDS011;49970;54.976;73.248;2023-01-04T02:45:39;99.13;;;36.33;;
63818;SDS011;49970;54.976;73.248;2023-01-04T02:48:09;111.72;;;40.20;;
63818;SDS011;49970;54.976;73.248;2023-01-04T02:50:55;127.22;;;40.95;;
63818;SDS011;49970;54.976;73.248;2023-01-04T02:53:30;118.22;;;43.15;;
63818;SDS011;49970;54.976;73.248;2023-01-04T03:08:33;107.57;;;39.53;;
63818;SDS011;49970;54.976;73.248;2023-01-04T03:14:03;81.43;;;33.30;;
63818;SDS011;49970;54.976;73.248;2023-01-04T03:16:32;74.28;;;31.85;;
63818;SDS011;49970;54.976;73.248;2023-01-04T03:19:01;83.00;;;33.92;;
63818;SDS011;49970;54.976;73.248;2023-01-04T03:21:38;66.35;;;31.83;;
63818;SDS011;49970;54.976;73.248;2023-01-04T03:24:19;78.68;;;33.88;;
63818;SDS011;49970;54.976;73.248;2023-01-04T03:27:09;75.57;;;31.42;;
63818;SDS011;49970;54.976;73.248;2023-01-04T03:29:59;80.28;;;33.60;;
63818;SDS011;49970;54.976;73.248;2023-01-04T03:36:11;85.78;;;30.70;;
63818;SDS011;49970;54.976;73.248;2023-01-04T03:39:09;71.80;;;29.38;;
63818;SDS011;49970;54.976;73.248;2023-01-04T03:45:18;78.43;;;31.63;;
63818;SDS011;49970;54.976;73.248;2023-01-04T03:48:13;75.05;;;31.30;;
63818;SDS011;49970;54.976;73.248;2023-01-04T03:51:27;77.55;;;32.00;;
63818;SDS011;49970;54.976;73.248;2023-01-04T03:54:02;91.28;;;35.40;;
63818;SDS011;49970;54.976;73.248;2023-01-04T03:56:35;88.88;;;35.88;;
63818;SDS011;49970;54.976;73.248;2023-01-04T03:59:06;75.60;;;35.97;;
63818;SDS011;49970;54.976;73.248;2023-01-04T04:01:34;86.55;;;36.70;;
63818;SDS011;49970;54.976;73.248;2023-01-04T04:04:11;72.10;;;35.45;;
63818;SDS011;49970;54.976;73.248;2023-01-04T04:07:01;89.10;;;38.63;;
63818;SDS011;49970;54.976;73.248;2023-01-04T04:09:56;76.95;;;32.72;;
63818;SDS011;49970;54.976;73.248;2023-01-04T04:12:22;74.07;;;28.58;;
63818;SDS011;49970;54.976;73.248;2023-01-04T04:14:48;60.35;;;27.30;;
63818;SDS011;49970;54.976;73.248;2023-01-04T04:17:16;64.72;;;27.95;;
63818;SDS011;49970;54.976;73.248;2023-01-04T04:19:42;63.85;;;27.60;;
63818;SDS011;49970;54.976;73.248;2023-01-04T04:22:08;64.03;;;27.83;;
63818;SDS011;49970;54.976;73.248;2023-01-04T04:24:44;68.70;;;29.70;;
63818;SDS011;49970;54.976;73.248;2023-01-04T04:27:17;67.60;;;27.98;;
63818;SDS011;49970;54.976;73.248;2023-01-04T04:29:43;69.18;;;28.05;;
63818;SDS011;49970;54.976;73.248;2023-01-04T04:32:09;71.18;;;28.25;;
63818;SDS011;49970;54.976;73.248;2023-01-04T04:34:45;64.40;;;28.40;;
63818;SDS011;49970;54.976;73.248;2023-01-04T04:37:22;69.78;;;29.08;;
63818;SDS011;49970;54.976;73.248;2023-01-04T04:39:48;69.10;;;27.73;;
63818;SDS011;49970;54.976;73.248;2023-01-04T04:42:14;61.92;;;26.42;;
63818;SDS011;49970;54.976;73.248;2023-01-04T04:44:40;59.55;;;26.05;;
63818;SDS011;49970;54.976;73.248;2023-01-04T04:47:06;62.70;;;25.92;;
63818;SDS011;49970;54.976;73.248;2023-01-04T04:49:33;59.08;;;25.52;;
63818;SDS011;49970;54.976;73.248;2023-01-04T04:52:09;57.35;;;26.58;;
63818;SDS011;49970;54.976;73.248;2023-01-04T04:54:36;63.53;;;27.20;;
63818;SDS011;49970;54.976;73.248;2023-01-04T04:57:02;57.28;;;24.90;;
63818;SDS011;49970;54.976;73.248;2023-01-04T04:59:29;62.47;;;25.08;;
63818;SDS011;49970;54.976;73.248;2023-01-04T05:01:55;60.65;;;25.90;;
63818;SDS011;49970;54.976;73.248;2023-01-04T05:04:21;66.00;;;26.38;;
63818;SDS011;49970;54.976;73.248;2023-01-04T05:06:48;59.72;;;26.45;;
63818;SDS011;49970;54.976;73.248;2023-01-04T05:09:17;62.35;;;25.85;;
63818;SDS011;49970;54.976;73.248;2023-01-04T05:11:43;52.42;;;25.27;;
63818;SDS011;49970;54.976;73.248;2023-01-04T05:14:28;59.75;;;25.40;;
63818;SDS011;49970;54.976;73.248;2023-01-04T05:16:57;52.50;;;25.08;;
63818;SDS011;49970;54.976;73.248;2023-01-04T05:19:23;53.97;;;25.48;;
63818;SDS011;49970;54.976;73.248;2023-01-04T05:21:49;58.55;;;26.42;;
63818;SDS011;49970;54.976;73.248;2023-01-04T05:24:15;63.60;;;27.13;;
63818;SDS011;49970;54.976;73.248;2023-01-04T05:26:52;54.70;;;26.05;;
63818;SDS011;49970;54.976;73.248;2023-01-04T05:29:18;59.35;;;24.42;;
63818;SDS011;49970;54.976;73.248;2023-01-04T05:32:04;58.97;;;23.40;;
63818;SDS011;49970;54.976;73.248;2023-01-04T05:34:30;54.83;;;26.02;;
63818;SDS011;49970;54.976;73.248;2023-01-04T05:37:07;55.85;;;25.90;;
63818;SDS011;49970;54.976;73.248;2023-01-04T05:39:33;58.85;;;25.42;;
63818;SDS011;49970;54.976;73.248;2023-01-04T05:42:09;61.25;;;26.50;;
63818;SDS011;49970;54.976;73.248;2023-01-04T05:44:56;60.50;;;25.67;;
63818;SDS011;49970;54.976;73.248;2023-01-04T05:47:24;54.75;;;24.63;;
63818;SDS011;49970;54.976;73.248;2023-01-04T05:49:51;54.92;;;25.30;;
63818;SDS011;49970;54.976;73.248;2023-01-04T05:52:18;56.42;;;25.55;;
63818;SDS011;49970;54.976;73.248;2023-01-04T05:54:45;61.10;;;27.35;;
63818;SDS011;49970;54.976;73.248;2023-01-04T05:57:11;67.03;;;26.48;;
63818;SDS011;49970;54.976;73.248;2023-01-04T05:59:38;60.72;;;26.05;;
63818;SDS011;49970;54.976;73.248;2023-01-04T06:02:05;53.42;;;24.83;;
63818;SDS011;49970;54.976;73.248;2023-01-04T06:04:31;55.80;;;25.17;;
63818;SDS011;49970;54.976;73.248;2023-01-04T06:06:57;57.60;;;27.27;;
63818;SDS011;49970;54.976;73.248;2023-01-04T06:09:33;56.92;;;26.00;;
63818;SDS011;49970;54.976;73.248;2023-01-04T06:12:04;55.67;;;24.65;;
63818;SDS011;49970;54.976;73.248;2023-01-04T06:14:31;57.75;;;24.17;;
63818;SDS011;49970;54.976;73.248;2023-01-04T06:17:08;59.60;;;25.70;;
63818;SDS011;49970;54.976;73.248;2023-01-04T06:19:44;61.30;;;24.25;;
63818;SDS011;49970;54.976;73.248;2023-01-04T06:22:10;56.85;;;25.17;;
63818;SDS011;49970;54.976;73.248;2023-01-04T06:24:46;61.35;;;26.25;;
63818;SDS011;49970;54.976;73.248;2023-01-04T06:27:22;55.63;;;25.65;;
63818;SDS011;49970;54.976;73.248;2023-01-04T06:29:59;67.47;;;26.02;;
63818;SDS011;49970;54.976;73.248;2023-01-04T06:32:25;60.58;;;24.48;;
63818;SDS011;49970;54.976;73.248;2023-01-04T06:34:51;66.28;;;27.02;;
63818;SDS011;49970;54.976;73.248;2023-01-04T06:37:17;53.42;;;24.42;;
63818;SDS011;49970;54.976;73.248;2023-01-04T06:39:48;59.20;;;25.17;;
63818;SDS011;49970;54.976;73.248;2023-01-04T06:42:15;59.50;;;25.05;;
63818;SDS011;49970;54.976;73.248;2023-01-04T06:45:04;67.38;;;25.63;;
63818;SDS011;49970;54.976;73.248;2023-01-04T06:47:31;65.07;;;26.15;;
63818;SDS011;49970;54.976;73.248;2023-01-04T06:49:57;56.67;;;25.80;;
63818;SDS011;49970;54.976;73.248;2023-01-04T06:52:23;52.30;;;24.85;;
63818;SDS011;49970;54.976;73.248;2023-01-04T06:54:49;62.08;;;25.73;;
63818;SDS011;49970;54.976;73.248;2023-01-04T06:57:15;64.97;;;25.75;;
63818;SDS011;49970;54.976;73.248;2023-01-04T06:59:52;61.13;;;27.20;;
63818;SDS011;49970;54.976;73.248;2023-01-04T07:02:28;59.63;;;24.77;;
63818;SDS011;49970;54.976;73.248;2023-01-04T07:04:54;59.67;;;26.17;;
63818;SDS011;49970;54.976;73.248;2023-01-04T07:07:20;61.42;;;26.00;;
63818;SDS011;49970;54.976;73.248;2023-01-04T07:09:47;55.35;;;25.50;;
63818;SDS011;49970;54.976;73.248;2023-01-04T07:12:13;62.58;;;26.98;;
63818;SDS011;49970;54.976;73.248;2023-01-04T07:14:49;59.17;;;26.50;;
63818;SDS011;49970;54.976;73.248;2023-01-04T07:17:15;59.13;;;26.23;;
63818;SDS011;49970;54.976;73.248;2023-01-04T07:19:51;58.40;;;27.27;;
63818;SDS011;49970;54.976;73.248;2023-01-04T07:22:18;51.20;;;24.92;;
63818;SDS011;49970;54.976;73.248;2023-01-04T07:24:44;61.25;;;26.70;;
63818;SDS011;49970;54.976;73.248;2023-01-04T07:27:21;65.97;;;26.00;;
63818;SDS011;49970;54.976;73.248;2023-01-04T07:29:47;60.35;;;26.33;;
63818;SDS011;49970;54.976;73.248;2023-01-04T07:32:18;57.85;;;26.88;;
63818;SDS011;49970;54.976;73.248;2023-01-04T07:34:54;57.38;;;26.05;;
63818;SDS011;49970;54.976;73.248;2023-01-04T07:37:21;59.35;;;24.80;;
63818;SDS011;49970;54.976;73.248;2023-01-04T07:39:52;50.70;;;24.40;;
63818;SDS011;49970;54.976;73.248;2023-01-04T07:42:18;62.20;;;25.50;;
63818;SDS011;49970;54.976;73.248;2023-01-04T07:44:51;64.35;;;25.77;;
63818;SDS011;49970;54.976;73.248;2023-01-04T07:47:27;57.97;;;24.80;;
63818;SDS011;49970;54.976;73.248;2023-01-04T07:49:58;64.93;;;27.42;;
63818;SDS011;49970;54.976;73.248;2023-01-04T07:52:29;55.10;;;25.67;;
63818;SDS011;49970;54.976;73.248;2023-01-04T07:54:55;56.60;;;25.50;;
63818;SDS011;49970;54.976;73.248;2023-01-04T07:57:21;51.67;;;25.58;;
63818;SDS011;49970;54.976;73.248;2023-01-04T07:59:47;48.08;;;23.35;;
63818;SDS011;49970;54.976;73.248;2023-01-04T08:02:23;52.50;;;24.25;;
63818;SDS011;49970;54.976;73.248;2023-01-04T08:04:50;55.05;;;23.42;;
63818;SDS011;49970;54.976;73.248;2023-01-04T08:07:16;58.67;;;25.83;;
63818;SDS011;49970;54.976;73.248;2023-01-04T08:09:42;51.60;;;24.80;;
63818;SDS011;49970;54.976;73.248;2023-01-04T08:12:13;50.88;;;23.60;;
63818;SDS011;49970;54.976;73.248;2023-01-04T08:14:39;57.63;;;23.45;;
63818;SDS011;49970;54.976;73.248;2023-01-04T08:17:06;50.22;;;23.75;;
63818;SDS011;49970;54.976;73.248;2023-01-04T08:19:32;52.28;;;22.50;;
63818;SDS011;49970;54.976;73.248;2023-01-04T08:21:58;45.70;;;22.05;;
63818;SDS011;49970;54.976;73.248;2023-01-04T08:24:24;50.42;;;23.98;;
63818;SDS011;49970;54.976;73.248;2023-01-04T08:26:52;53.30;;;23.40;;
63818;SDS011;49970;54.976;73.248;2023-01-04T08:29:18;52.17;;;23.38;;
63818;SDS011;49970;54.976;73.248;2023-01-04T08:31:44;46.28;;;20.30;;
63818;SDS011;49970;54.976;73.248;2023-01-04T08:34:11;50.42;;;22.25;;
63818;SDS011;49970;54.976;73.248;2023-01-04T08:36:44;43.33;;;22.25;;
63818;SDS011;49970;54.976;73.248;2023-01-04T08:39:13;55.30;;;22.42;;
63818;SDS011;49970;54.976;73.248;2023-01-04T08:41:49;49.65;;;23.98;;
63818;SDS011;49970;54.976;73.248;2023-01-04T08:44:25;47.15;;;22.02;;
63818;SDS011;49970;54.976;73.248;2023-01-04T08:46:52;46.70;;;22.77;;
63818;SDS011;49970;54.976;73.248;2023-01-04T08:49:19;42.95;;;22.48;;
63818;SDS011;49970;54.976;73.248;2023-01-04T08:51:46;53.92;;;22.58;;
63818;SDS011;49970;54.976;73.248;2023-01-04T08:54:13;49.47;;;23.35;;
63818;SDS011;49970;54.976;73.248;2023-01-04T08:56:40;40.83;;;20.05;;
63818;SDS011;49970;54.976;73.248;2023-01-04T08:59:08;45.88;;;21.67;;
63818;SDS011;49970;54.976;73.248;2023-01-04T09:01:35;48.13;;;21.77;;
63818;SDS011;49970;54.976;73.248;2023-01-04T09:04:08;46.47;;;21.10;;
63818;SDS011;49970;54.976;73.248;2023-01-04T09:06:35;44.92;;;21.60;;
63818;SDS011;49970;54.976;73.248;2023-01-04T09:09:02;44.45;;;21.20;;
63818;SDS011;49970;54.976;73.248;2023-01-04T09:11:29;41.13;;;17.95;;
63818;SDS011;49970;54.976;73.248;2023-01-04T09:13:58;26.40;;;13.82;;
63818;SDS011;49970;54.976;73.248;2023-01-04T09:16:26;29.60;;;11.95;;
63818;SDS011;49970;54.976;73.248;2023-01-04T09:18:52;28.65;;;12.88;;
63818;SDS011;49970;54.976;73.248;2023-01-04T09:21:20;25.50;;;12.93;;
63818;SDS011;49970;54.976;73.248;2023-01-04T09:23:47;22.92;;;12.38;;
63818;SDS011;49970;54.976;73.248;2023-01-04T09:26:15;35.20;;;13.57;;
63818;SDS011;49970;54.976;73.248;2023-01-04T09:28:48;22.52;;;12.55;;
63818;SDS011;49970;54.976;73.248;2023-01-04T09:31:17;22.75;;;12.13;;
63818;SDS011;49970;54.976;73.248;2023-01-04T09:33:45;18.50;;;12.43;;
63818;SDS011;49970;54.976;73.248;2023-01-04T09:36:12;30.63;;;12.15;;
63818;SDS011;49970;54.976;73.248;2023-01-04T09:38:40;17.88;;;10.52;;
63818;SDS011;49970;54.976;73.248;2023-01-04T09:41:13;19.42;;;10.30;;
63818;SDS011;49970;54.976;73.248;2023-01-04T09:43:49;22.20;;;11.50;;
63818;SDS011;49970;54.976;73.248;2023-01-04T09:46:23;13.88;;;9.27;;
63818;SDS011;49970;54.976;73.248;2023-01-04T09:49:04;18.05;;;10.98;;
63818;SDS011;49970;54.976;73.248;2023-01-04T09:52:03;14.52;;;8.85;;
63818;SDS011;49970;54.976;73.248;2023-01-04T09:57:16;17.75;;;9.80;;
63818;SDS011;49970;54.976;73.248;2023-01-04T10:00:02;17.17;;;10.40;;
63818;SDS011;49970;54.976;73.248;2023-01-04T10:05:17;16.88;;;10.77;;
63818;SDS011;49970;54.976;73.248;2023-01-04T10:07:46;14.85;;;9.38;;
63818;SDS011;49970;54.976;73.248;2023-01-04T10:10:17;16.35;;;9.65;;
63818;SDS011;49970;54.976;73.248;2023-01-04T10:13:07;19.58;;;9.98;;
63818;SDS011;49970;54.976;73.248;2023-01-04T10:18:24;29.88;;;10.07;;
63818;SDS011;49970;54.976;73.248;2023-01-04T10:21:15;19.05;;;10.60;;
63818;SDS011;49970;54.976;73.248;2023-01-04T10:23:51;15.02;;;10.32;;
63818;SDS011;49970;54.976;73.248;2023-01-04T10:26:27;21.75;;;11.50;;
63818;SDS011;49970;54.976;73.248;2023-01-04T10:29:22;18.17;;;10.05;;
63818;SDS011;49970;54.976;73.248;2023-01-04T10:32:18;16.70;;;10.13;;
63818;SDS011;49970;54.976;73.248;2023-01-04T10:34:56;24.55;;;12.80;;
63818;SDS011;49970;54.976;73.248;2023-01-04T10:37:23;19.30;;;10.50;;
63818;SDS011;49970;54.976;73.248;2023-01-04T10:39:55;14.07;;;9.63;;
63818;SDS011;49970;54.976;73.248;2023-01-04T10:44:57;18.67;;;10.85;;
63818;SDS011;49970;54.976;73.248;2023-01-04T10:53:35;19.08;;;11.30;;
63818;SDS011;49970;54.976;73.248;2023-01-04T11:02:21;19.10;;;12.70;;
63818;SDS011;49970;54.976;73.248;2023-01-04T11:05:01;20.58;;;11.98;;
63818;SDS011;49970;54.976;73.248;2023-01-04T11:10:30;16.38;;;10.73;;
63818;SDS011;49970;54.976;73.248;2023-01-04T11:12:59;15.88;;;9.98;;
63818;SDS011;49970;54.976;73.248;2023-01-04T11:15:25;21.05;;;11.00;;
63818;SDS011;49970;54.976;73.248;2023-01-04T11:17:51;24.08;;;12.25;;
63818;SDS011;49970;54.976;73.248;2023-01-04T11:20:22;15.43;;;11.00;;
63818;SDS011;49970;54.976;73.248;2023-01-04T11:22:54;21.77;;;12.07;;
63818;SDS011;49970;54.976;73.248;2023-01-04T11:25:25;22.73;;;11.43;;
63818;SDS011;49970;54.976;73.248;2023-01-04T11:27:59;22.70;;;12.60;;
63818;SDS011;49970;54.976;73.248;2023-01-04T11:31:02;22.33;;;12.85;;
63818;SDS011;49970;54.976;73.248;2023-01-04T11:34:02;22.02;;;12.05;;
63818;SDS011;49970;54.976;73.248;2023-01-04T11:36:33;22.30;;;11.17;;
63818;SDS011;49970;54.976;73.248;2023-01-04T11:39:19;24.27;;;12.18;;
63818;SDS011;49970;54.976;73.248;2023-01-04T11:42:02;20.25;;;11.48;;
63818;SDS011;49970;54.976;73.248;2023-01-04T11:44:33;25.30;;;12.18;;
63818;SDS011;49970;54.976;73.248;2023-01-04T11:47:05;20.45;;;12.98;;
63818;SDS011;49970;54.976;73.248;2023-01-04T11:49:43;20.93;;;12.90;;
63818;SDS011;49970;54.976;73.248;2023-01-04T11:52:43;27.60;;;13.43;;
63818;SDS011;49970;54.976;73.248;2023-01-04T11:55:24;28.60;;;13.30;;
63818;SDS011;49970;54.976;73.248;2023-01-04T11:58:14;29.40;;;13.32;;
63818;SDS011;49970;54.976;73.248;2023-01-04T12:03:29;18.17;;;11.65;;
63818;SDS011;49970;54.976;73.248;2023-01-04T12:05:57;21.60;;;12.55;;
63818;SDS011;49970;54.976;73.248;2023-01-04T12:08:33;19.85;;;9.65;;
63818;SDS011;49970;54.976;73.248;2023-01-04T12:11:03;20.35;;;11.35;;
63818;SDS011;49970;54.976;73.248;2023-01-04T12:13:32;21.70;;;13.32;;
63818;SDS011;49970;54.976;73.248;2023-01-04T12:18:41;19.90;;;11.65;;
63818;SDS011;49970;54.976;73.248;2023-01-04T12:21:20;26.63;;;12.23;;
63818;SDS011;49970;54.976;73.248;2023-01-04T12:23:55;15.75;;;9.75;;
63818;SDS011;49970;54.976;73.248;2023-01-04T12:26:21;16.40;;;9.80;;
63818;SDS011;49970;54.976;73.248;2023-01-04T12:28:49;17.90;;;10.57;;
63818;SDS011;49970;54.976;73.248;2023-01-04T12:33:59;17.85;;;11.02;;
63818;SDS011;49970;54.976;73.248;2023-01-04T12:39:24;20.33;;;12.30;;
63818;SDS011;49970;54.976;73.248;2023-01-04T12:50:20;21.40;;;10.43;;
63818;SDS011;49970;54.976;73.248;2023-01-04T12:52:51;18.70;;;11.13;;
63818;SDS011;49970;54.976;73.248;2023-01-04T12:58:02;15.43;;;10.00;;
63818;SDS011;49970;54.976;73.248;2023-01-04T13:06:24;18.17;;;10.98;;
63818;SDS011;49970;54.976;73.248;2023-01-04T13:08:41;20.95;;;10.52;;
63818;SDS011;49970;54.976;73.248;2023-01-04T13:14:25;19.70;;;11.60;;
63818;SDS011;49970;54.976;73.248;2023-01-04T13:19:49;16.38;;;10.50;;
63818;SDS011;49970;54.976;73.248;2023-01-04T13:22:26;22.45;;;12.38;;
63818;SDS011;49970;54.976;73.248;2023-01-04T13:24:55;20.98;;;10.70;;
63818;SDS011;49970;54.976;73.248;2023-01-04T13:27:23;21.55;;;13.05;;
63818;SDS011;49970;54.976;73.248;2023-01-04T13:29:50;23.67;;;13.15;;
63818;SDS011;49970;54.976;73.248;2023-01-04T13:32:28;31.92;;;15.88;;
63818;SDS011;49970;54.976;73.248;2023-01-04T13:35:12;24.95;;;15.32;;
63818;SDS011;49970;54.976;73.248;2023-01-04T13:37:45;29.70;;;16.35;;
63818;SDS011;49970;54.976;73.248;2023-01-04T13:48:36;33.38;;;16.05;;
63818;SDS011;49970;54.976;73.248;2023-01-04T13:53:52;35.60;;;16.67;;
63818;SDS011;49970;54.976;73.248;2023-01-04T13:56:21;36.47;;;17.33;;
63818;SDS011;49970;54.976;73.248;2023-01-04T13:58:50;30.40;;;16.35;;
63818;SDS011;49970;54.976;73.248;2023-01-04T14:01:21;30.52;;;16.83;;
63818;SDS011;49970;54.976;73.248;2023-01-04T14:03:55;35.03;;;15.75;;
63818;SDS011;49970;54.976;73.248;2023-01-04T14:09:16;36.15;;;16.25;;
63818;SDS011;49970;54.976;73.248;2023-01-04T14:11:54;30.27;;;15.70;;
63818;SDS011;49970;54.976;73.248;2023-01-04T14:25:36;39.75;;;18.98;;
63818;SDS011;49970;54.976;73.248;2023-01-04T14:46:14;33.38;;;17.52;;
63818;SDS011;49970;54.976;73.248;2023-01-04T14:48:50;42.10;;;17.45;;
63818;SDS011;49970;54.976;73.248;2023-01-04T14:51:18;38.33;;;16.75;;
63818;SDS011;49970;54.976;73.248;2023-01-04T14:53:47;34.67;;;16.42;;
63818;SDS011;49970;54.976;73.248;2023-01-04T14:56:14;28.25;;;14.68;;
63818;SDS011;49970;54.976;73.248;2023-01-04T14:58:43;33.92;;;16.30;;
63818;SDS011;49970;54.976;73.248;2023-01-04T15:01:15;27.65;;;13.88;;
63818;SDS011;49970;54.976;73.248;2023-01-04T15:03:41;30.45;;;14.88;;
63818;SDS011;49970;54.976;73.248;2023-01-04T15:06:13;28.45;;;15.77;;
63818;SDS011;49970;54.976;73.248;2023-01-04T15:08:43;37.60;;;15.52;;
63818;SDS011;49970;54.976;73.248;2023-01-04T15:11:15;29.27;;;15.45;;
63818;SDS011;49970;54.976;73.248;2023-01-04T15:13:42;32.47;;;16.30;;
63818;SDS011;49970;54.976;73.248;2023-01-04T15:16:19;34.90;;;16.88;;
63818;SDS011;49970;54.976;73.248;2023-01-04T15:18:45;36.15;;;18.48;;
63818;SDS011;49970;54.976;73.248;2023-01-04T15:21:17;35.10;;;18.30;;
63818;SDS011;49970;54.976;73.248;2023-01-04T15:23:43;40.35;;;17.42;;
63818;SDS011;49970;54.976;73.248;2023-01-04T15:26:10;47.40;;;20.15;;
63818;SDS011;49970;54.976;73.248;2023-01-04T15:28:37;38.13;;;19.63;;
63818;SDS011;49970;54.976;73.248;2023-01-04T15:31:10;33.03;;;18.85;;
63818;SDS011;49970;54.976;73.248;2023-01-04T15:33:38;44.72;;;22.65;;
63818;SDS011;49970;54.976;73.248;2023-01-04T15:36:06;44.67;;;19.67;;
63818;SDS011;49970;54.976;73.248;2023-01-04T15:38:35;47.20;;;21.27;;
63818;SDS011;49970;54.976;73.248;2023-01-04T15:41:14;46.53;;;19.77;;
63818;SDS011;49970;54.976;73.248;2023-01-04T15:44:01;41.53;;;18.63;;
63818;SDS011;49970;54.976;73.248;2023-01-04T15:46:38;36.85;;;16.80;;
63818;SDS011;49970;54.976;73.248;2023-01-04T15:49:05;35.53;;;17.65;;
63818;SDS011;49970;54.976;73.248;2023-01-04T15:51:31;31.83;;;14.73;;
63818;SDS011;49970;54.976;73.248;2023-01-04T15:53:59;36.53;;;15.52;;
63818;SDS011;49970;54.976;73.248;2023-01-04T15:56:25;31.75;;;15.98;;
63818;SDS011;49970;54.976;73.248;2023-01-04T15:58:52;29.80;;;15.27;;
63818;SDS011;49970;54.976;73.248;2023-01-04T16:01:24;28.88;;;16.13;;
63818;SDS011;49970;54.976;73.248;2023-01-04T16:03:50;35.72;;;16.08;;
63818;SDS011;49970;54.976;73.248;2023-01-04T16:06:16;33.10;;;17.00;;
63818;SDS011;49970;54.976;73.248;2023-01-04T16:08:43;33.03;;;17.38;;
63818;SDS011;49970;54.976;73.248;2023-01-04T16:13:39;41.08;;;16.38;;
63818;SDS011;49970;54.976;73.248;2023-01-04T16:16:11;42.65;;;17.95;;
63818;SDS011;49970;54.976;73.248;2023-01-04T16:18:38;38.50;;;18.00;;
63818;SDS011;49970;54.976;73.248;2023-01-04T16:21:15;47.90;;;18.58;;
63818;SDS011;49970;54.976;73.248;2023-01-04T16:23:56;50.00;;;19.20;;
63818;SDS011;49970;54.976;73.248;2023-01-04T16:26:23;61.03;;;24.33;;
63818;SDS011;49970;54.976;73.248;2023-01-04T16:28:54;55.80;;;26.45;;
63818;SDS011;49970;54.976;73.248;2023-01-04T16:31:21;53.42;;;23.85;;
63818;SDS011;49970;54.976;73.248;2023-01-04T16:33:57;54.35;;;23.67;;
63818;SDS011;49970;54.976;73.248;2023-01-04T16:36:24;48.42;;;20.77;;
63818;SDS011;49970;54.976;73.248;2023-01-04T16:39:00;47.08;;;20.90;;
63818;SDS011;49970;54.976;73.248;2023-01-04T16:41:27;42.45;;;21.23;;
63818;SDS011;49970;54.976;73.248;2023-01-04T16:43:54;46.75;;;21.80;;
63818;SDS011;49970;54.976;73.248;2023-01-04T16:46:26;41.70;;;19.50;;
63818;SDS011;49970;54.976;73.248;2023-01-04T16:48:56;38.35;;;19.25;;
63818;SDS011;49970;54.976;73.248;2023-01-04T16:51:31;47.85;;;19.92;;
63818;SDS011;49970;54.976;73.248;2023-01-04T16:54:12;40.50;;;17.58;;
63818;SDS011;49970;54.976;73.248;2023-01-04T16:56:43;31.58;;;17.35;;